Time;durP1;ratioP1;P1;durP2;ratioP2;P2;SDS_P1;SDS_P2;PMS_P1;PMS_P2;Temp;Humidity;BMP_temperature;BMP_pressure;BME280_temperature;BME280_humidity;BME280_pressure;Samples;Min_cycle;Max_cycle;Signal;HPM_P1;HPM_P2
2023/10/28 00:00:29;;;;;;;0.87;0.80;;;;;;;11.94;77.69;94179.69;6156401;23;20198;-89
2023/10/28 00:02:56;;;;;;;0.80;0.80;;;;;;;11.98;79.20;94221.31;6153773;23;20178;-88
2023/10/28 00:05:25;;;;;;;1.23;0.90;;;;;;;11.86;79.51;94233.38;6154710;23;20181;-90
2023/10/28 00:07:52;;;;;;;0.80;0.80;;;;;;;11.93;80.86;94270.19;6154741;23;20218;-90
2023/10/28 00:10:20;;;;;;;1.00;0.90;;;;;;;11.95;81.09;94266.38;6155090;23;20186;-88
2023/10/28 00:12:48;;;;;;;1.23;0.90;;;;;;;11.96;81.51;94272.31;6155273;23;20174;-87
2023/10/28 00:15:18;;;;;;;1.43;0.90;;;;;;;11.87;82.50;94274.41;6156821;23;20210;-86
2023/10/28 00:17:46;;;;;;;1.10;1.00;;;;;;;11.77;83.34;94290.38;6156732;23;20277;-89
2023/10/28 00:20:13;;;;;;;0.70;0.63;;;;;;;11.77;84.15;94318.75;6156992;23;20271;-88
2023/10/28 00:22:39;;;;;;;0.90;0.90;;;;;;;11.86;85.01;94336.53;6157891;23;20183;-89
2023/10/28 00:25:07;;;;;;;0.70;0.70;;;;;;;11.87;84.88;94340.69;6158107;23;20179;-89
2023/10/28 00:27:33;;;;;;;1.10;0.87;;;;;;;11.91;84.79;94339.25;6156178;23;20191;-90
2023/10/28 00:30:03;;;;;;;1.10;0.90;;;;;;;11.84;86.03;94367.69;6156408;23;20635;-89
2023/10/28 00:32:32;;;;;;;1.00;0.87;;;;;;;11.71;87.16;94378.09;6157193;23;20225;-89
2023/10/28 00:34:59;;;;;;;0.83;0.77;;;;;;;11.68;88.35;94397.38;6156802;23;20235;-89
2023/10/28 00:37:26;;;;;;;0.80;0.80;;;;;;;11.73;88.78;94413.00;6156011;23;20195;-88
2023/10/28 00:39:52;;;;;;;2.30;0.80;;;;;;;11.72;88.46;94410.63;6156417;23;20194;-87
2023/10/28 00:42:19;;;;;;;0.53;0.53;;;;;;;11.62;89.05;94420.59;6156722;23;20175;-87
2023/10/28 00:44:45;;;;;;;0.67;0.67;;;;;;;11.52;89.43;94417.72;6157228;23;20179;-86
2023/10/28 00:47:12;;;;;;;0.60;0.60;;;;;;;11.52;88.53;94410.00;6156632;23;20199;-87
2023/10/28 00:49:42;;;;;;;0.80;0.70;;;;;;;11.49;88.96;94420.72;6156935;23;20175;-85
2023/10/28 00:52:10;;;;;;;0.93;0.80;;;;;;;11.56;88.73;94418.88;6156172;23;20247;-86
2023/10/28 00:54:37;;;;;;;0.73;0.70;;;;;;;11.66;88.10;94416.63;6157163;23;20198;-86
2023/10/28 00:57:04;;;;;;;0.50;0.50;;;;;;;11.73;88.08;94401.88;6156344;23;20210;-87
2023/10/28 00:59:30;;;;;;;0.70;0.60;;;;;;;11.81;87.29;94393.09;6156590;23;20172;-87
2023/10/28 01:01:57;;;;;;;0.60;0.60;;;;;;;11.74;86.37;94364.75;6155926;23;20199;-86
2023/10/28 01:04:23;;;;;;;0.50;0.50;;;;;;;11.76;85.82;94355.84;6155998;23;20178;-85
2023/10/28 01:06:51;;;;;;;0.60;0.60;;;;;;;11.73;85.48;94358.06;6156325;23;20233;-88
2023/10/28 01:09:18;;;;;;;0.50;0.50;;;;;;;11.74;85.11;94355.25;6156450;23;20175;-87
2023/10/28 01:11:45;;;;;;;0.50;0.50;;;;;;;11.72;85.28;94351.31;6156600;23;20174;-87
2023/10/28 01:14:19;;;;;;;1.17;0.73;;;;;;;11.79;84.79;94364.16;6156568;23;20181;-85
2023/10/28 01:16:46;;;;;;;0.53;0.53;;;;;;;11.78;84.77;94360.78;6155008;23;20223;-85
2023/10/28 01:19:15;;;;;;;0.67;0.60;;;;;;;11.75;83.99;94336.19;6157224;23;20258;-89
2023/10/28 01:21:44;;;;;;;0.50;0.50;;;;;;;11.74;83.82;94333.81;6155382;23;20253;-89
2023/10/28 01:24:10;;;;;;;1.03;0.53;;;;;;;11.70;83.58;94330.91;6154446;23;20186;-85
2023/10/28 01:26:37;;;;;;;1.40;0.50;;;;;;;11.59;82.95;94313.56;6154452;23;20182;-84
2023/10/28 01:29:03;;;;;;;0.60;0.53;;;;;;;11.63;83.29;94325.03;6154418;23;20233;-86
2023/10/28 01:31:30;;;;;;;0.40;0.40;;;;;;;11.53;83.88;94326.53;6153721;23;20185;-86
2023/10/28 01:33:56;;;;;;;0.87;0.60;;;;;;;11.46;83.47;94331.72;6154220;23;20175;-86
2023/10/28 01:36:23;;;;;;;0.47;0.43;;;;;;;11.47;83.19;94315.25;6153989;23;20185;-85
2023/10/28 01:38:51;;;;;;;0.40;0.40;;;;;;;11.48;82.65;94298.81;6152512;23;20231;-85
2023/10/28 01:41:18;;;;;;;0.50;0.50;;;;;;;11.50;82.56;94306.31;6153937;23;20195;-85
2023/10/28 01:43:44;;;;;;;0.50;0.50;;;;;;;11.53;82.32;94285.28;6154264;23;20229;-85
2023/10/28 01:46:11;;;;;;;0.57;0.50;;;;;;;11.59;81.85;94285.19;6154174;23;20190;-85
2023/10/28 01:48:38;;;;;;;0.50;0.50;;;;;;;11.61;81.53;94269.50;6154336;23;20191;-86
2023/10/28 01:51:04;;;;;;;0.50;0.50;;;;;;;11.60;81.07;94255.06;6153750;23;20788;-86
2023/10/28 01:53:31;;;;;;;0.50;0.50;;;;;;;11.55;80.45;94235.06;6153764;23;20185;-85
2023/10/28 01:55:58;;;;;;;1.13;0.70;;;;;;;11.65;80.21;94250.03;6152951;23;20190;-86
2023/10/28 01:58:25;;;;;;;0.50;0.50;;;;;;;11.73;79.93;94244.63;6153863;23;20256;-85
2023/10/28 02:00:51;;;;;;;0.70;0.43;;;;;;;11.70;78.91;94212.31;6153860;23;20222;-87
2023/10/28 02:03:18;;;;;;;1.53;0.50;;;;;;;11.73;79.28;94222.19;6153654;23;20674;-89
2023/10/28 02:05:44;;;;;;;0.50;0.50;;;;;;;11.77;78.26;94192.41;6153877;23;20628;-88
2023/10/28 02:08:11;;;;;;;3.37;0.50;;;;;;;11.71;77.74;94174.44;6153489;23;20210;-90
2023/10/28 02:10:37;;;;;;;0.60;0.60;;;;;;;11.73;77.12;94172.41;6153137;23;20307;-87
2023/10/28 02:13:05;;;;;;;0.60;0.60;;;;;;;11.80;77.02;94160.25;6153109;23;20257;-88
2023/10/28 02:15:31;;;;;;;0.50;0.50;;;;;;;11.83;77.51;94179.66;6153076;23;20186;-88
2023/10/28 02:17:58;;;;;;;0.60;0.50;;;;;;;11.84;77.10;94170.91;6152578;23;20737;-88
2023/10/28 02:20:25;;;;;;;1.10;0.80;;;;;;;11.68;76.55;94157.59;6153095;23;20271;-90
2023/10/28 02:22:52;;;;;;;0.67;0.50;;;;;;;11.77;76.67;94165.81;6152896;23;20178;-89
2023/10/28 02:25:18;;;;;;;0.67;0.60;;;;;;;11.86;76.57;94176.63;6153365;23;20186;-88
2023/10/28 02:27:45;;;;;;;0.60;0.60;;;;;;;11.87;75.79;94144.69;6152699;23;20277;-88
2023/10/28 02:30:14;;;;;;;1.13;0.67;;;;;;;11.83;75.39;94143.56;6152611;23;20175;-89
2023/10/28 02:32:40;;;;;;;0.67;0.60;;;;;;;11.75;74.82;94135.06;6152915;23;20558;-88
2023/10/28 02:35:07;;;;;;;0.83;0.60;;;;;;;11.77;74.85;94135.69;6152889;23;20179;-88
2023/10/28 02:37:34;;;;;;;0.50;0.50;;;;;;;11.75;74.89;94124.75;6152423;23;20221;-88
2023/10/28 02:40:00;;;;;;;0.73;0.70;;;;;;;11.78;74.51;94113.25;6153175;23;20171;-87
2023/10/28 02:42:27;;;;;;;0.63;0.60;;;;;;;11.74;74.09;94092.25;6152854;23;20198;-89
2023/10/28 02:44:53;;;;;;;1.90;0.70;;;;;;;11.72;73.80;94093.50;6152600;23;20186;-87
2023/10/28 02:47:22;;;;;;;0.80;0.60;;;;;;;11.75;73.82;94103.34;6152816;23;20199;-88
2023/10/28 02:49:49;;;;;;;2.30;0.70;;;;;;;11.69;73.89;94107.63;6154391;23;20183;-88
2023/10/28 02:52:15;;;;;;;1.53;0.60;;;;;;;11.64;73.81;94094.59;6153969;23;20201;-89
2023/10/28 02:54:41;;;;;;;1.83;0.63;;;;;;;11.76;73.36;94090.28;6153815;23;20175;-89
2023/10/28 02:57:08;;;;;;;1.80;0.60;;;;;;;11.71;73.36;94069.50;6153856;23;20670;-86
2023/10/28 02:59:34;;;;;;;1.07;0.80;;;;;;;11.70;73.02;94064.56;6152241;23;20179;-88
2023/10/28 03:02:01;;;;;;;2.73;0.70;;;;;;;11.75;73.29;94077.56;6153440;23;20195;-89
2023/10/28 03:04:28;;;;;;;2.63;0.70;;;;;;;11.80;72.84;94054.53;6153580;23;20179;-88
2023/10/28 03:06:55;;;;;;;1.63;0.60;;;;;;;11.79;72.23;94047.00;6153971;23;20175;-89
2023/10/28 03:09:21;;;;;;;1.07;0.60;;;;;;;11.81;72.35;94039.84;6152693;23;20175;-88
2023/10/28 03:11:48;;;;;;;2.20;0.80;;;;;;;11.74;71.76;94024.44;6152616;23;20175;-89
2023/10/28 03:14:14;;;;;;;1.07;0.70;;;;;;;11.67;71.89;94026.34;6152650;23;20186;-86
2023/10/28 03:16:41;;;;;;;1.43;0.63;;;;;;;11.70;71.72;94018.97;6152136;23;20182;-88
2023/10/28 03:19:11;;;;;;;1.10;0.70;;;;;;;11.71;71.76;94022.31;6153585;23;20179;-86
2023/10/28 03:21:38;;;;;;;1.63;0.73;;;;;;;11.76;71.73;94028.38;6153383;23;20202;-87
2023/10/28 03:24:06;;;;;;;1.60;0.67;;;;;;;11.66;71.83;94024.75;6153063;23;20183;-84
2023/10/28 03:26:33;;;;;;;0.97;0.60;;;;;;;11.60;72.13;94036.72;6155109;23;20233;-86
2023/10/28 03:28:59;;;;;;;2.20;0.90;;;;;;;11.62;72.68;94080.34;6155513;23;20199;-88
2023/10/28 03:31:26;;;;;;;1.80;0.80;;;;;;;11.62;72.13;94042.47;6155738;23;20171;-88
2023/10/28 03:33:56;;;;;;;2.60;0.80;;;;;;;11.64;71.76;94043.03;6155944;23;20199;-87
2023/10/28 03:36:23;;;;;;;1.20;0.60;;;;;;;11.70;71.67;94039.56;6153589;23;20179;-89
2023/10/28 03:38:51;;;;;;;1.37;0.80;;;;;;;11.67;71.43;94049.53;6154287;23;20534;-88
2023/10/28 03:41:17;;;;;;;2.20;0.60;;;;;;;11.67;71.34;94036.66;6155959;23;20709;-86
2023/10/28 03:43:44;;;;;;;0.70;0.70;;;;;;;11.64;71.78;94037.09;6155625;23;20179;-86
2023/10/28 03:46:17;;;;;;;0.80;0.67;;;;;;;11.63;71.71;94044.03;6155299;23;20182;-86
2023/10/28 03:48:43;;;;;;;0.60;0.60;;;;;;;11.61;71.76;94053.78;6154978;23;20253;-88
2023/10/28 03:51:10;;;;;;;0.70;0.70;;;;;;;11.61;71.80;94053.78;6155868;23;20535;-87
2023/10/28 03:53:36;;;;;;;1.30;0.80;;;;;;;11.58;71.43;94043.91;6154841;23;20178;-86
2023/10/28 03:56:05;;;;;;;2.00;0.60;;;;;;;11.59;71.70;94055.00;6155208;23;20179;-86
2023/10/28 03:58:34;;;;;;;1.90;0.87;;;;;;;11.52;71.51;94049.16;6158179;23;20222;-87
2023/10/28 04:01:01;;;;;;;0.60;0.60;;;;;;;11.52;71.80;94069.78;6160459;23;20199;-88
2023/10/28 04:03:33;;;;;;;1.17;0.70;;;;;;;11.60;71.52;94072.03;6168828;23;20210;-89
2023/10/28 04:06:00;;;;;;;1.60;0.60;;;;;;;11.52;71.16;94051.75;6167044;23;20163;-87
2023/10/28 04:08:27;;;;;;;1.03;0.70;;;;;;;11.51;71.27;94047.59;6168338;23;20225;-87
2023/10/28 04:10:56;;;;;;;0.80;0.63;;;;;;;11.59;71.15;94048.06;6166986;23;20189;-86
2023/10/28 04:13:28;;;;;;;1.03;0.50;;;;;;;11.55;70.37;94020.34;6167673;23;20239;-87
2023/10/28 04:15:54;;;;;;;0.73;0.57;;;;;;;11.60;70.43;94028.22;6168784;23;20164;-87
2023/10/28 04:18:23;;;;;;;0.70;0.60;;;;;;;11.55;69.82;94010.03;6168700;23;20541;-89
2023/10/28 04:20:55;;;;;;;2.40;0.60;;;;;;;11.64;69.75;94011.31;6167149;23;20187;-87
2023/10/28 04:23:21;;;;;;;0.60;0.60;;;;;;;11.63;69.59;94000.22;6168007;23;20167;-87
2023/10/28 04:25:50;;;;;;;0.87;0.60;;;;;;;11.65;69.86;94005.94;6166644;23;20591;-86
2023/10/28 04:28:19;;;;;;;0.67;0.60;;;;;;;11.74;69.49;94006.38;6167059;23;20199;-87
2023/10/28 04:30:56;;;;;;;0.50;0.50;;;;;;;11.77;69.14;93985.34;6166513;23;20186;-87
2023/10/28 04:33:30;;;;;;;0.60;0.60;;;;;;;11.71;68.87;93974.13;6165870;23;20214;-87
2023/10/28 04:36:00;;;;;;;0.77;0.73;;;;;;;11.74;68.91;93975.44;6165625;23;20163;-87
2023/10/28 04:38:26;;;;;;;1.37;0.63;;;;;;;11.77;68.95;93985.34;6164998;23;20207;-88
2023/10/28 04:40:56;;;;;;;0.60;0.60;;;;;;;11.84;68.74;93982.69;6165775;23;20178;-89
2023/10/28 04:43:26;;;;;;;0.60;0.60;;;;;;;11.71;68.66;93965.59;6164983;23;20561;-88
2023/10/28 04:45:53;;;;;;;1.07;0.60;;;;;;;11.61;68.89;93973.09;6164289;23;20178;-86
2023/10/28 04:48:27;;;;;;;1.30;0.67;;;;;;;11.71;69.17;93993.97;6165163;23;20202;-86
2023/10/28 04:50:56;;;;;;;1.40;0.63;;;;;;;11.64;68.73;93972.66;6165236;23;20163;-87
2023/10/28 04:53:25;;;;;;;1.53;0.60;;;;;;;11.69;68.72;93983.09;6163995;23;20175;-87
2023/10/28 04:55:52;;;;;;;0.63;0.63;;;;;;;11.68;68.91;93977.13;6165652;23;20225;-86
2023/10/28 04:58:18;;;;;;;1.40;0.70;;;;;;;11.74;69.78;94014.13;6166308;23;20201;-88
2023/10/28 05:00:48;;;;;;;1.17;0.70;;;;;;;11.73;68.67;93984.22;6164276;23;20189;-88
2023/10/28 05:03:22;;;;;;;1.43;0.77;;;;;;;11.73;68.62;93977.28;6163227;23;20195;-88
2023/10/28 05:05:54;;;;;;;1.63;0.80;;;;;;;11.76;68.55;93984.56;6162383;23;20163;-87
2023/10/28 05:08:23;;;;;;;0.93;0.93;;;;;;;11.69;68.89;93978.72;6161897;23;20995;-87
2023/10/28 05:10:49;;;;;;;0.60;0.60;;;;;;;11.67;68.56;93987.66;6162717;23;20183;-87
2023/10/28 05:13:18;;;;;;;1.07;0.80;;;;;;;11.71;68.63;93987.00;6161778;23;20179;-88
2023/10/28 05:15:44;;;;;;;0.60;0.60;;;;;;;11.67;68.34;93983.31;6161991;23;20174;-87
2023/10/28 05:18:17;;;;;;;1.77;0.70;;;;;;;11.64;68.43;93976.00;6161559;23;20686;-86
2023/10/28 05:21:05;;;;;;;1.00;0.80;;;;;;;11.74;68.61;93980.59;6161182;23;20190;-87
2023/10/28 05:24:05;;;;;;;2.60;0.87;;;;;;;11.81;68.51;93976.16;6160353;23;20733;-86
2023/10/28 05:26:43;;;;;;;1.03;0.70;;;;;;;11.86;68.16;93967.75;6161266;23;20187;-88
2023/10/28 05:29:36;;;;;;;1.73;0.70;;;;;;;11.89;68.39;93972.47;6162721;23;20225;-87
2023/10/28 05:32:19;;;;;;;0.80;0.73;;;;;;;11.89;68.84;93988.75;6163668;23;20166;-86
2023/10/28 05:34:57;;;;;;;0.73;0.60;;;;;;;11.85;67.96;93966.19;6162805;23;20175;-85
2023/10/28 05:38:04;;;;;;;1.33;0.90;;;;;;;11.85;68.33;93976.50;6161526;23;20201;-85
2023/10/28 05:40:44;;;;;;;4.47;1.07;;;;;;;11.85;67.88;93961.03;6130946;23;20168;-86
2023/10/28 05:43:48;;;;;;;2.03;0.80;;;;;;;11.83;67.73;93955.31;6130889;23;20191;-86
2023/10/28 05:46:22;;;;;;;0.70;0.70;;;;;;;11.77;67.70;93951.81;6130323;23;20250;-87
2023/10/28 05:49:04;;;;;;;;;;;;;;;;;;;;;
2023/10/28 05:54:18;;;;;;;2.13;0.80;;;;;;;11.88;67.65;93969.13;6099990;23;20194;-86
2023/10/28 05:57:27;;;;;;;1.37;0.70;;;;;;;11.86;67.22;93942.75;6128436;23;20195;-85
2023/10/28 06:00:10;;;;;;;2.60;0.80;;;;;;;11.88;67.18;93948.47;6129208;23;20231;-86
2023/10/28 06:02:48;;;;;;;1.10;0.70;;;;;;;11.85;66.63;93924.94;6127504;23;20192;-87
2023/10/28 06:08:16;;;;;;;1.17;0.70;;;;;;;11.85;67.39;93941.19;6128053;23;20191;-87
2023/10/28 06:10:53;;;;;;;1.40;0.83;;;;;;;11.88;66.72;93930.44;6128661;23;20164;-86
2023/10/28 06:13:31;;;;;;;1.07;0.87;;;;;;;11.85;66.70;93943.78;6128257;23;20164;-86
2023/10/28 06:16:04;;;;;;;0.70;0.70;;;;;;;11.93;66.52;93938.25;6129225;23;20159;-86
2023/10/28 06:18:37;;;;;;;1.57;0.60;;;;;;;12.00;67.06;93951.84;6127662;23;20206;-88
2023/10/28 06:21:11;;;;;;;0.90;0.70;;;;;;;12.04;66.70;93957.34;6128119;23;20191;-85
2023/10/28 06:23:46;;;;;;;1.00;0.90;;;;;;;12.05;66.69;93970.00;6128772;23;20184;-86
2023/10/28 06:26:26;;;;;;;1.67;0.80;;;;;;;12.10;66.67;93961.59;6127930;23;20571;-86
2023/10/28 06:28:57;;;;;;;1.43;0.90;;;;;;;12.13;66.14;93935.34;6128250;23;20214;-86
2023/10/28 06:31:26;;;;;;;0.70;0.70;;;;;;;12.23;66.07;93940.72;6128088;23;20210;-86
2023/10/28 06:34:10;;;;;;;1.53;1.20;;;;;;;12.31;66.04;93952.50;6127925;23;20163;-86
2023/10/28 06:36:41;;;;;;;2.80;1.70;;;;;;;12.34;66.50;93970.09;6126773;23;20203;-86
2023/10/28 06:39:17;;;;;;;1.37;1.00;;;;;;;12.42;65.78;93938.78;6146109;23;20206;-86
2023/10/28 06:41:47;;;;;;;1.00;0.90;;;;;;;12.55;65.28;93927.41;6166261;23;20344;-87
2023/10/28 06:44:43;;;;;;;1.73;1.10;;;;;;;12.69;65.01;93914.03;6165374;23;20179;-88
2023/10/28 06:47:42;;;;;;;1.20;0.93;;;;;;;12.80;64.39;93889.94;6166836;23;20790;-86
2023/10/28 06:50:24;;;;;;;1.33;1.10;;;;;;;12.79;64.15;93875.47;6149424;23;20217;-87
2023/10/28 06:52:59;;;;;;;0.93;0.90;;;;;;;12.82;63.67;93853.56;6165681;23;20182;-87
2023/10/28 06:58:29;;;;;;;1.40;0.90;;;;;;;12.84;63.26;93846.34;6164553;23;20197;-87
2023/10/28 07:00:57;;;;;;;0.93;0.83;;;;;;;13.21;62.81;93843.34;6166068;23;20175;-86
2023/10/28 07:03:51;;;;;;;3.23;0.80;;;;;;;13.76;61.42;93795.03;6166517;23;20199;-87
2023/10/28 07:06:35;;;;;;;1.87;1.00;;;;;;;14.30;60.02;93724.44;6166099;23;20226;-86
2023/10/28 07:09:05;;;;;;;0.73;0.73;;;;;;;14.40;58.32;93642.50;6165881;23;20191;-86
2023/10/28 07:11:42;;;;;;;1.17;0.80;;;;;;;14.29;58.15;93619.34;6165856;23;20663;-88
2023/10/28 07:14:15;;;;;;;1.03;0.90;;;;;;;14.33;58.38;93641.91;6166450;23;20702;-86
2023/10/28 07:16:49;;;;;;;1.00;0.70;;;;;;;14.40;58.11;93628.75;6165159;23;20182;-86
2023/10/28 07:19:23;;;;;;;0.73;0.73;;;;;;;14.22;58.11;93629.13;6165459;23;20226;-85
2023/10/28 07:22:41;;;;;;;0.77;0.73;;;;;;;14.52;57.87;93658.66;6165186;23;20163;-87
2023/10/28 07:25:20;;;;;;;0.63;0.63;;;;;;;14.66;57.84;93647.88;6161798;23;20190;-86
2023/10/28 07:31:15;;;;;;;0.95;0.80;;;;;;;15.35;56.30;93591.47;6156013;23;20182;-86
2023/10/28 07:34:00;;;;;;;1.85;0.70;;;;;;;15.64;54.70;93519.19;6162369;23;20178;-86
2023/10/28 07:36:37;;;;;;;2.25;0.75;;;;;;;15.72;54.20;93502.34;6162709;23;20189;-86
2023/10/28 07:39:28;;;;;;;1.10;0.70;;;;;;;15.85;53.83;93492.22;6154525;23;20206;-89
2023/10/28 07:45:13;;;;;;;2.28;0.80;;;;;;;15.66;54.26;93496.38;6113153;23;20179;-85
2023/10/28 07:47:53;;;;;;;0.60;0.60;;;;;;;15.50;53.53;93474.03;6166650;23;20195;-87
2023/10/28 07:50:38;;;;;;;1.33;0.57;;;;;;;15.59;53.96;93503.63;6167171;23;20218;-89
2023/10/28 07:53:05;;;;;;;0.77;0.77;;;;;;;15.85;53.91;93520.78;6165884;23;20175;-86
2023/10/28 08:02:48;;;;;;;0.95;0.80;;;;;;;15.83;53.03;93485.75;6045035;23;20351;-86
2023/10/28 08:08:41;;;;;;;2.28;0.80;;;;;;;16.18;51.77;93422.63;6162407;23;20195;-87
2023/10/28 08:11:23;;;;;;;0.98;0.70;;;;;;;16.29;52.14;93454.53;6161649;23;20512;-86
2023/10/28 08:14:32;;;;;;;0.85;0.63;;;;;;;16.52;51.13;93396.81;6163471;23;20170;-86
2023/10/28 08:23:17;;;;;;;1.60;0.75;;;;;;;16.53;50.93;93388.75;6095625;23;20283;-86
2023/10/28 08:25:46;;;;;;;0.93;0.70;;;;;;;16.42;50.98;93386.44;6160797;23;20158;-89
2023/10/28 08:31:17;;;;;;;0.60;0.60;;;;;;;16.39;51.28;93416.31;6158548;23;20206;-89
2023/10/28 08:34:20;;;;;;;1.95;0.75;;;;;;;16.43;51.59;93435.53;6161194;23;20171;-89
2023/10/28 08:37:13;;;;;;;0.60;0.60;;;;;;;16.42;51.68;93444.38;6160554;23;20178;-88
2023/10/28 08:39:59;;;;;;;0.95;0.70;;;;;;;16.37;51.89;93438.41;6160956;23;20183;-87
2023/10/28 08:42:33;;;;;;;0.57;0.57;;;;;;;16.15;51.63;93420.56;6161688;23;20526;-88
2023/10/28 08:45:13;;;;;;;3.05;0.70;;;;;;;16.03;52.25;93459.00;6160953;23;20185;-88
2023/10/28 08:51:37;;;;;;;2.45;0.80;;;;;;;16.16;51.16;93430.66;6106633;23;20579;-86
2023/10/28 08:54:32;;;;;;;1.00;0.65;;;;;;;16.19;51.08;93434.56;6158309;23;20179;-86
2023/10/28 08:57:06;;;;;;;0.77;0.70;;;;;;;16.42;51.17;93436.56;6159813;23;20206;-87
2023/10/28 09:00:14;;;;;;;1.50;0.80;;;;;;;16.30;50.88;93417.94;6157979;23;20175;-87
2023/10/28 09:02:58;;;;;;;2.33;0.65;;;;;;;16.40;50.57;93396.31;6158616;23;20190;-88
2023/10/28 09:05:39;;;;;;;1.23;0.70;;;;;;;16.35;50.77;93410.13;6159040;23;20170;-87
2023/10/28 09:08:27;;;;;;;1.55;0.80;;;;;;;16.46;50.75;93423.84;6156494;23;20419;-89
2023/10/28 09:10:58;;;;;;;1.27;0.80;;;;;;;16.53;50.23;93396.56;6151810;23;20179;-87
2023/10/28 09:13:45;;;;;;;1.90;0.95;;;;;;;16.51;50.18;93380.44;6158529;23;20226;-87
2023/10/28 09:16:27;;;;;;;2.03;0.70;;;;;;;16.67;50.05;93375.22;6158222;23;20655;-88
2023/10/28 09:19:06;;;;;;;1.70;0.90;;;;;;;16.53;49.48;93375.78;6157968;23;20197;-87
2023/10/28 09:21:55;;;;;;;1.65;0.90;;;;;;;16.56;50.02;93395.22;6158329;23;20163;-86
2023/10/28 09:24:46;;;;;;;;;;;;;;;;;;;;;
2023/10/28 09:27:22;;;;;;;1.35;0.70;;;;;;;16.64;49.82;93404.31;6148984;23;20234;-87
2023/10/28 09:30:25;;;;;;;1.20;0.75;;;;;;;16.66;49.30;93374.44;6153844;23;20213;-87
2023/10/28 09:33:18;;;;;;;2.13;0.90;;;;;;;16.65;49.28;93353.91;6153279;23;20158;-86
2023/10/28 09:36:11;;;;;;;0.75;0.70;;;;;;;16.80;49.44;93385.00;6141458;23;20186;-87
2023/10/28 09:38:57;;;;;;;2.58;0.73;;;;;;;16.98;49.68;93405.16;6126526;23;20206;-86
2023/10/28 09:41:34;;;;;;;1.75;0.80;;;;;;;16.93;49.06;93369.56;6153607;23;20515;-86
2023/10/28 09:44:03;;;;;;;1.58;0.70;;;;;;;16.91;49.19;93361.28;6153545;23;20222;-87
2023/10/28 09:46:32;;;;;;;1.33;0.73;;;;;;;16.89;48.89;93362.63;6155399;23;20229;-88
2023/10/28 09:49:07;;;;;;;1.25;0.90;;;;;;;16.82;48.71;93336.13;6154630;23;20195;-87
2023/10/28 09:51:46;;;;;;;1.48;0.60;;;;;;;16.77;49.12;93360.31;6154883;23;20170;-87
2023/10/28 09:54:28;;;;;;;1.85;0.70;;;;;;;16.49;49.70;93373.97;6153426;23;20167;-87
2023/10/28 09:57:07;;;;;;;2.22;1.45;;;;;;;16.52;49.64;93391.63;6155850;23;20163;-86
2023/10/28 09:59:56;;;;;;;0.85;0.70;;;;;;;16.54;49.72;93387.72;6156053;23;20159;-86
2023/10/28 10:02:36;;;;;;;0.85;0.70;;;;;;;16.63;49.86;93400.94;6154783;23;20159;-88
2023/10/28 10:05:08;;;;;;;1.58;0.90;;;;;;;16.43;49.63;93388.78;6154202;23;20252;-88
2023/10/28 10:07:56;;;;;;;1.63;0.80;;;;;;;16.41;49.98;93403.84;6155788;23;20211;-87
2023/10/28 10:10:25;;;;;;;0.93;0.70;;;;;;;16.53;49.86;93396.56;6155219;23;20219;-86
2023/10/28 10:13:07;;;;;;;3.70;1.00;;;;;;;16.70;49.34;93385.06;6153744;23;20213;-86
2023/10/28 10:18:40;;;;;;;1.13;0.80;;;;;;;16.71;48.66;93327.63;6150857;23;20482;-87
2023/10/28 10:21:12;;;;;;;1.42;0.95;;;;;;;16.76;48.66;93319.00;6155797;23;20161;-87
2023/10/28 10:24:03;;;;;;;2.30;0.82;;;;;;;16.74;48.52;93326.31;6155099;23;20269;-87
2023/10/28 10:26:56;;;;;;;2.85;0.95;;;;;;;16.79;48.87;93331.47;6155667;23;20151;-86
2023/10/28 10:29:35;;;;;;;1.00;0.68;;;;;;;16.71;48.67;93306.84;6155818;23;20155;-86
2023/10/28 10:32:05;;;;;;;2.72;0.90;;;;;;;16.76;48.81;93326.81;6155705;23;20167;-87
2023/10/28 10:34:33;;;;;;;1.55;0.80;;;;;;;16.82;48.78;93323.91;6155655;23;20205;-87
2023/10/28 10:37:12;;;;;;;1.98;0.90;;;;;;;16.64;48.01;93295.19;6156573;23;20166;-87
2023/10/28 10:39:54;;;;;;;2.58;0.80;;;;;;;16.59;48.48;93301.16;6157051;23;20237;-87
2023/10/28 10:42:25;;;;;;;1.23;0.82;;;;;;;16.66;48.60;93303.50;6156724;23;20178;-89
2023/10/28 10:45:19;;;;;;;;;;;;;;;;;;;;;
2023/10/28 10:47:55;;;;;;;2.10;0.90;;;;;;;16.93;48.82;93358.44;6155533;23;20502;-85
2023/10/28 10:53:04;;;;;;;2.20;0.93;;;;;;;16.91;48.54;93331.94;6134234;23;20237;-86
2023/10/28 10:55:31;;;;;;;2.30;1.00;;;;;;;16.82;48.31;93323.91;6155723;23;20174;-86
2023/10/28 10:57:59;;;;;;;1.70;0.90;;;;;;;16.84;48.29;93302.84;6155373;23;20721;-86
2023/10/28 11:00:38;;;;;;;3.40;2.60;;;;;;;16.82;48.34;93325.75;6155104;23;20205;-87
2023/10/28 11:03:11;;;;;;;0.85;0.80;;;;;;;16.83;48.59;93317.69;6155542;23;20483;-86
2023/10/28 11:06:13;;;;;;;0.90;0.70;;;;;;;16.89;48.31;93323.63;6155134;23;20257;-86
2023/10/28 11:11:32;;;;;;;1.73;1.00;;;;;;;17.06;49.16;93368.22;6153927;23;20167;-88
2023/10/28 11:13:59;;;;;;;1.17;0.88;;;;;;;17.08;49.02;93358.31;6155363;23;20698;-87
2023/10/28 11:16:33;;;;;;;1.20;1.00;;;;;;;17.17;48.37;93329.91;6154993;23;20173;-86
2023/10/28 11:19:07;;;;;;;1.00;0.70;;;;;;;17.22;47.93;93301.25;6160711;23;20194;-87
2023/10/28 11:24:46;;;;;;;1.20;0.90;;;;;;;17.32;47.49;93271.81;6120686;23;20210;-87
2023/10/28 11:27:33;;;;;;;1.95;0.90;;;;;;;17.41;47.32;93275.34;6164247;23;20159;-88
2023/10/28 11:30:09;;;;;;;3.08;1.08;;;;;;;17.33;46.81;93239.53;6163146;23;20572;-87
2023/10/28 11:32:44;;;;;;;2.13;1.00;;;;;;;17.22;45.76;93161.63;6164976;23;20182;-87
2023/10/28 11:35:24;;;;;;;8.75;2.30;;;;;;;17.31;46.46;93200.81;6164628;23;20165;-88
2023/10/28 11:40:37;;;;;;;1.60;1.00;;;;;;;17.25;45.09;93131.69;6159105;23;20678;-87
2023/10/28 11:43:18;;;;;;;1.33;0.95;;;;;;;17.29;45.32;93137.13;6163784;23;20187;-87
2023/10/28 11:46:20;;;;;;;;;;;;;;;;;;;;;
2023/10/28 11:49:22;;;;;;;1.80;1.30;;;;;;;17.41;45.43;93151.28;6159020;23;20193;-88
2023/10/28 11:51:52;;;;;;;1.85;1.20;;;;;;;17.48;45.32;93127.53;6159594;23;20206;-87
2023/10/28 11:54:28;;;;;;;1.48;1.08;;;;;;;17.53;45.15;93140.44;6160777;23;20156;-86
2023/10/28 11:56:55;;;;;;;2.83;1.00;;;;;;;17.57;44.94;93134.41;6158967;23;20198;-86
2023/10/28 11:59:43;;;;;;;1.80;1.02;;;;;;;17.63;44.73;93129.94;6158877;23;20179;-87
2023/10/28 12:02:18;;;;;;;3.50;1.63;;;;;;;17.89;45.19;93175.44;6159691;23;20163;-86
2023/10/28 12:05:12;;;;;;;2.83;1.20;;;;;;;17.93;44.60;93133.97;6158421;23;20194;-87
2023/10/28 12:07:41;;;;;;;2.13;1.13;;;;;;;18.05;44.79;93142.16;6160738;23;20266;-88
2023/10/28 12:10:16;;;;;;;1.80;0.93;;;;;;;18.04;44.66;93119.00;6159253;23;20249;-87
2023/10/28 12:12:54;;;;;;;2.15;1.17;;;;;;;17.90;43.95;93088.44;6161626;23;20546;-87
2023/10/28 12:15:24;;;;;;;1.55;1.13;;;;;;;17.83;44.29;93072.44;6147980;23;20175;-87
2023/10/28 12:17:54;;;;;;;2.38;1.08;;;;;;;17.75;44.17;93083.47;6161645;23;20732;-87
2023/10/28 12:20:36;;;;;;;2.13;1.00;;;;;;;17.78;44.30;93115.97;6161115;23;20210;-88
2023/10/28 12:23:33;;;;;;;1.50;0.95;;;;;;;17.90;44.65;93129.34;6162464;23;20697;-86
2023/10/28 12:26:04;;;;;;;1.42;0.90;;;;;;;18.07;45.22;93170.53;6160915;23;20231;-86
2023/10/28 12:31:35;;;;;;;2.78;2.20;;;;;;;18.04;44.38;93122.38;6145542;23;20238;-88
2023/10/28 12:34:13;;;;;;;3.78;1.75;;;;;;;17.99;44.34;93122.44;6162222;23;20175;-88
2023/10/28 12:37:27;;;;;;;2.63;1.02;;;;;;;18.07;44.22;93097.63;6161045;23;20177;-87
2023/10/28 12:43:18;;;;;;;1.65;0.90;;;;;;;18.02;43.46;93054.19;6157691;23;20533;-86
2023/10/28 12:45:53;;;;;;;2.35;0.90;;;;;;;18.17;43.82;93079.22;6159312;23;20238;-87
2023/10/28 12:48:20;;;;;;;3.33;0.98;;;;;;;18.03;43.45;93044.56;6158889;23;20201;-87
2023/10/28 12:50:59;;;;;;;2.03;1.00;;;;;;;17.95;43.70;93044.13;6158995;23;20183;-87
2023/10/28 12:53:41;;;;;;;2.38;1.17;;;;;;;18.05;43.54;93063.28;6160255;23;20175;-87
2023/10/28 12:56:24;;;;;;;2.08;1.23;;;;;;;18.25;44.03;93086.41;6159678;23;20171;-87
2023/10/28 12:58:59;;;;;;;1.33;0.88;;;;;;;18.35;44.10;93099.25;6159751;23;20194;-87
2023/10/28 13:01:32;;;;;;;0.73;0.73;;;;;;;18.47;44.09;93102.16;6159485;23;20159;-87
2023/10/28 13:07:04;;;;;;;2.70;1.25;;;;;;;18.63;42.91;93033.13;6148482;23;20225;-86
2023/10/28 13:13:07;;;;;;;1.70;1.00;;;;;;;18.68;43.12;93021.06;6150273;23;20178;-86
2023/10/28 13:16:00;;;;;;;1.10;0.93;;;;;;;18.58;42.64;92975.88;6154651;23;20201;-87
2023/10/28 13:21:57;;;;;;;2.40;1.30;;;;;;;18.74;42.67;93004.25;6126537;23;20233;-86